sensor_id;sensor_type;location;lat;lon;timestamp;temperature;humidity
8152;DHT22;4117;53.622;9.958;2022-10-30T00:00:43;13.80;99.90
8152;DHT22;4117;53.622;9.958;2022-10-30T00:03:11;13.80;99.90
8152;DHT22;4117;53.622;9.958;2022-10-30T00:05:40;13.80;99.90
8152;DHT22;4117;53.622;9.958;2022-10-30T00:08:10;13.80;99.90
8152;DHT22;4117;53.622;9.958;2022-10-30T00:10:37;13.80;99.90
8152;DHT22;4117;53.622;9.958;2022-10-30T00:13:04;13.80;99.90
8152;DHT22;4117;53.622;9.958;2022-10-30T00:15:31;13.80;99.90
8152;DHT22;4117;53.622;9.958;2022-10-30T00:17:58;13.80;99.90
8152;DHT22;4117;53.622;9.958;2022-10-30T00:20:25;13.80;99.90
8152;DHT22;4117;53.622;9.958;2022-10-30T00:22:51;13.80;99.90
8152;DHT22;4117;53.622;9.958;2022-10-30T00:25:19;13.80;99.90
8152;DHT22;4117;53.622;9.958;2022-10-30T00:27:46;13.80;99.90
8152;DHT22;4117;53.622;9.958;2022-10-30T00:30:13;13.80;99.90
8152;DHT22;4117;53.622;9.958;2022-10-30T00:32:41;13.70;99.90
8152;DHT22;4117;53.622;9.958;2022-10-30T00:35:08;13.70;99.90
8152;DHT22;4117;53.622;9.958;2022-10-30T00:37:35;13.70;99.90
8152;DHT22;4117;53.622;9.958;2022-10-30T00:40:03;13.70;99.90
8152;DHT22;4117;53.622;9.958;2022-10-30T00:42:32;13.70;99.90
8152;DHT22;4117;53.622;9.958;2022-10-30T00:44:59;13.70;99.90
8152;DHT22;4117;53.622;9.958;2022-10-30T00:47:29;13.60;99.90
8152;DHT22;4117;53.622;9.958;2022-10-30T00:49:59;13.60;99.90
8152;DHT22;4117;53.622;9.958;2022-10-30T00:52:29;13.60;99.90
8152;DHT22;4117;53.622;9.958;2022-10-30T00:55:00;13.60;99.90
8152;DHT22;4117;53.622;9.958;2022-10-30T00:57:27;13.60;99.90
8152;DHT22;4117;53.622;9.958;2022-10-30T00:59:56;13.60;99.90
8152;DHT22;4117;53.622;9.958;2022-10-30T01:02:24;13.60;99.90
8152;DHT22;4117;53.622;9.958;2022-10-30T01:04:51;13.50;99.90
8152;DHT22;4117;53.622;9.958;2022-10-30T01:07:19;13.50;99.90
8152;DHT22;4117;53.622;9.958;2022-10-30T01:09:46;13.50;99.90
8152;DHT22;4117;53.622;9.958;2022-10-30T01:12:13;13.50;99.90
8152;DHT22;4117;53.622;9.958;2022-10-30T01:14:46;13.50;99.90
8152;DHT22;4117;53.622;9.958;2022-10-30T01:17:39;13.50;99.90
8152;DHT22;4117;53.622;9.958;2022-10-30T01:20:21;13.40;99.90
8152;DHT22;4117;53.622;9.958;2022-10-30T01:22:57;13.40;99.90
8152;DHT22;4117;53.622;9.958;2022-10-30T01:25:37;13.30;99.90
8152;DHT22;4117;53.622;9.958;2022-10-30T01:28:21;13.30;99.90
8152;DHT22;4117;53.622;9.958;2022-10-30T01:31:07;13.20;99.90
8152;DHT22;4117;53.622;9.958;2022-10-30T01:33:45;13.20;99.90
8152;DHT22;4117;53.622;9.958;2022-10-30T01:36:20;13.20;99.90
8152;DHT22;4117;53.622;9.958;2022-10-30T01:38:52;13.20;99.90
8152;DHT22;4117;53.622;9.958;2022-10-30T01:41:19;13.20;99.90
8152;DHT22;4117;53.622;9.958;2022-10-30T01:43:48;13.20;99.90
8152;DHT22;4117;53.622;9.958;2022-10-30T01:46:36;13.20;99.90
8152;DHT22;4117;53.622;9.958;2022-10-30T01:49:23;13.20;99.90
8152;DHT22;4117;53.622;9.958;2022-10-30T01:51:58;13.10;99.90
8152;DHT22;4117;53.622;9.958;2022-10-30T01:54:34;13.10;99.90
8152;DHT22;4117;53.622;9.958;2022-10-30T01:57:07;13.10;99.90
8152;DHT22;4117;53.622;9.958;2022-10-30T01:59:41;13.10;99.90
8152;DHT22;4117;53.622;9.958;2022-10-30T02:02:09;13.10;99.90
8152;DHT22;4117;53.622;9.958;2022-10-30T02:04:37;13.10;99.90
8152;DHT22;4117;53.622;9.958;2022-10-30T02:07:05;13.00;99.90
8152;DHT22;4117;53.622;9.958;2022-10-30T02:09:31;13.00;99.90
8152;DHT22;4117;53.622;9.958;2022-10-30T02:11:59;13.00;99.90
8152;DHT22;4117;53.622;9.958;2022-10-30T02:14:30;13.00;99.90
8152;DHT22;4117;53.622;9.958;2022-10-30T02:17:00;12.90;99.90
8152;DHT22;4117;53.622;9.958;2022-10-30T02:19:28;12.90;99.90
8152;DHT22;4117;53.622;9.958;2022-10-30T02:21:56;12.90;99.90
8152;DHT22;4117;53.622;9.958;2022-10-30T02:24:23;12.90;99.90
8152;DHT22;4117;53.622;9.958;2022-10-30T02:26:50;12.80;99.90
8152;DHT22;4117;53.622;9.958;2022-10-30T02:29:16;12.80;99.90
8152;DHT22;4117;53.622;9.958;2022-10-30T02:31:45;12.80;99.90
8152;DHT22;4117;53.622;9.958;2022-10-30T02:34:12;12.70;99.90
8152;DHT22;4117;53.622;9.958;2022-10-30T02:36:39;12.70;99.90
8152;DHT22;4117;53.622;9.958;2022-10-30T02:39:07;12.70;99.90
8152;DHT22;4117;53.622;9.958;2022-10-30T02:41:34;12.70;99.90
8152;DHT22;4117;53.622;9.958;2022-10-30T02:44:01;12.70;99.90
8152;DHT22;4117;53.622;9.958;2022-10-30T02:46:28;12.60;99.90
8152;DHT22;4117;53.622;9.958;2022-10-30T02:48:54;12.60;99.90
8152;DHT22;4117;53.622;9.958;2022-10-30T02:51:21;12.60;99.90
8152;DHT22;4117;53.622;9.958;2022-10-30T02:53:48;12.60;99.90
8152;DHT22;4117;53.622;9.958;2022-10-30T02:56:16;12.50;99.90
8152;DHT22;4117;53.622;9.958;2022-10-30T02:58:43;12.50;99.90
8152;DHT22;4117;53.622;9.958;2022-10-30T03:01:12;12.50;99.90
8152;DHT22;4117;53.622;9.958;2022-10-30T03:03:39;12.40;99.90
8152;DHT22;4117;53.622;9.958;2022-10-30T03:06:08;12.40;99.90
8152;DHT22;4117;53.622;9.958;2022-10-30T03:08:35;12.40;99.90
8152;DHT22;4117;53.622;9.958;2022-10-30T03:11:04;12.40;99.90
8152;DHT22;4117;53.622;9.958;2022-10-30T03:13:34;12.40;99.90
8152;DHT22;4117;53.622;9.958;2022-10-30T03:16:01;12.40;99.90
8152;DHT22;4117;53.622;9.958;2022-10-30T03:18:28;12.30;99.90
8152;DHT22;4117;53.622;9.958;2022-10-30T03:20:56;12.40;99.90
8152;DHT22;4117;53.622;9.958;2022-10-30T03:23:23;12.30;99.90
8152;DHT22;4117;53.622;9.958;2022-10-30T03:25:52;12.20;99.90
8152;DHT22;4117;53.622;9.958;2022-10-30T03:28:20;12.20;99.90
8152;DHT22;4117;53.622;9.958;2022-10-30T03:30:48;12.20;99.90
8152;DHT22;4117;53.622;9.958;2022-10-30T03:33:15;12.20;99.90
8152;DHT22;4117;53.622;9.958;2022-10-30T03:35:43;12.20;99.90
8152;DHT22;4117;53.622;9.958;2022-10-30T03:38:10;12.20;99.90
8152;DHT22;4117;53.622;9.958;2022-10-30T03:40:37;12.10;99.90
8152;DHT22;4117;53.622;9.958;2022-10-30T03:43:04;12.10;99.90
8152;DHT22;4117;53.622;9.958;2022-10-30T03:45:32;12.10;99.90
8152;DHT22;4117;53.622;9.958;2022-10-30T03:48:01;12.10;99.90
8152;DHT22;4117;53.622;9.958;2022-10-30T03:50:28;12.10;99.90
8152;DHT22;4117;53.622;9.958;2022-10-30T03:52:55;12.00;99.90
8152;DHT22;4117;53.622;9.958;2022-10-30T03:55:23;12.00;99.90
8152;DHT22;4117;53.622;9.958;2022-10-30T03:57:50;11.90;99.90
8152;DHT22;4117;53.622;9.958;2022-10-30T04:00:18;11.90;99.90
8152;DHT22;4117;53.622;9.958;2022-10-30T04:02:48;11.90;99.90
8152;DHT22;4117;53.622;9.958;2022-10-30T04:05:18;11.80;99.90
8152;DHT22;4117;53.622;9.958;2022-10-30T04:07:46;11.80;99.90
8152;DHT22;4117;53.622;9.958;2022-10-30T04:10:13;11.80;99.90
8152;DHT22;4117;53.622;9.958;2022-10-30T04:12:40;11.80;99.90
8152;DHT22;4117;53.622;9.958;2022-10-30T04:15:07;11.80;99.90
8152;DHT22;4117;53.622;9.958;2022-10-30T04:17:34;11.70;99.90
8152;DHT22;4117;53.622;9.958;2022-10-30T04:20:01;11.70;99.90
8152;DHT22;4117;53.622;9.958;2022-10-30T04:22:29;11.70;99.90
8152;DHT22;4117;53.622;9.958;2022-10-30T04:24:56;11.70;99.90
8152;DHT22;4117;53.622;9.958;2022-10-30T04:27:23;11.70;99.90
8152;DHT22;4117;53.622;9.958;2022-10-30T04:29:49;11.70;99.90
8152;DHT22;4117;53.622;9.958;2022-10-30T04:32:17;11.70;99.90
8152;DHT22;4117;53.622;9.958;2022-10-30T04:34:43;11.70;99.90
8152;DHT22;4117;53.622;9.958;2022-10-30T04:37:10;11.70;99.90
8152;DHT22;4117;53.622;9.958;2022-10-30T04:39:38;11.60;99.90
8152;DHT22;4117;53.622;9.958;2022-10-30T04:42:05;11.60;99.90
8152;DHT22;4117;53.622;9.958;2022-10-30T04:44:32;11.60;99.90
8152;DHT22;4117;53.622;9.958;2022-10-30T04:46:59;11.60;99.90
8152;DHT22;4117;53.622;9.958;2022-10-30T04:49:25;11.60;99.90
8152;DHT22;4117;53.622;9.958;2022-10-30T04:51:52;11.60;99.90
8152;DHT22;4117;53.622;9.958;2022-10-30T04:54:19;11.60;99.90
8152;DHT22;4117;53.622;9.958;2022-10-30T04:56:47;11.60;99.90
8152;DHT22;4117;53.622;9.958;2022-10-30T04:59:14;11.50;99.90
8152;DHT22;4117;53.622;9.958;2022-10-30T05:01:41;11.60;99.90
8152;DHT22;4117;53.622;9.958;2022-10-30T05:04:08;11.60;99.90
8152;DHT22;4117;53.622;9.958;2022-10-30T05:06:35;11.50;99.90
8152;DHT22;4117;53.622;9.958;2022-10-30T05:09:01;11.60;99.90
8152;DHT22;4117;53.622;9.958;2022-10-30T05:11:28;11.50;99.90
8152;DHT22;4117;53.622;9.958;2022-10-30T05:13:57;11.50;99.90
8152;DHT22;4117;53.622;9.958;2022-10-30T05:16:24;11.50;99.90
8152;DHT22;4117;53.622;9.958;2022-10-30T05:18:50;11.50;99.90
8152;DHT22;4117;53.622;9.958;2022-10-30T05:21:17;11.50;99.90
8152;DHT22;4117;53.622;9.958;2022-10-30T05:23:44;11.50;99.90
8152;DHT22;4117;53.622;9.958;2022-10-30T05:26:11;11.50;99.90
8152;DHT22;4117;53.622;9.958;2022-10-30T05:28:38;11.50;99.90
8152;DHT22;4117;53.622;9.958;2022-10-30T05:31:06;11.50;99.90
8152;DHT22;4117;53.622;9.958;2022-10-30T05:33:33;11.50;99.90
8152;DHT22;4117;53.622;9.958;2022-10-30T05:36:00;11.50;99.90
8152;DHT22;4117;53.622;9.958;2022-10-30T05:38:27;11.40;99.90
8152;DHT22;4117;53.622;9.958;2022-10-30T05:40:54;11.50;99.90
8152;DHT22;4117;53.622;9.958;2022-10-30T05:43:20;11.40;99.90
8152;DHT22;4117;53.622;9.958;2022-10-30T05:45:48;11.40;99.90
8152;DHT22;4117;53.622;9.958;2022-10-30T05:48:16;11.40;99.90
8152;DHT22;4117;53.622;9.958;2022-10-30T05:50:43;11.40;99.90
8152;DHT22;4117;53.622;9.958;2022-10-30T05:53:09;11.40;99.90
8152;DHT22;4117;53.622;9.958;2022-10-30T05:55:36;11.40;99.90
8152;DHT22;4117;53.622;9.958;2022-10-30T05:58:04;11.40;99.90
8152;DHT22;4117;53.622;9.958;2022-10-30T06:00:32;11.40;99.90
8152;DHT22;4117;53.622;9.958;2022-10-30T06:03:00;11.40;99.90
8152;DHT22;4117;53.622;9.958;2022-10-30T06:05:29;11.40;99.90
8152;DHT22;4117;53.622;9.958;2022-10-30T06:07:56;11.40;99.90
8152;DHT22;4117;53.622;9.958;2022-10-30T06:10:24;11.30;99.90
8152;DHT22;4117;53.622;9.958;2022-10-30T06:12:54;11.40;99.90
8152;DHT22;4117;53.622;9.958;2022-10-30T06:15:22;11.40;99.90
8152;DHT22;4117;53.622;9.958;2022-10-30T06:17:48;11.40;99.90
8152;DHT22;4117;53.622;9.958;2022-10-30T06:20:16;11.30;99.90
8152;DHT22;4117;53.622;9.958;2022-10-30T06:22:53;11.30;99.90
8152;DHT22;4117;53.622;9.958;2022-10-30T06:25:21;11.30;99.90
8152;DHT22;4117;53.622;9.958;2022-10-30T06:27:47;11.30;99.90
8152;DHT22;4117;53.622;9.958;2022-10-30T06:30:14;11.30;99.90
8152;DHT22;4117;53.622;9.958;2022-10-30T06:32:41;11.30;99.90
8152;DHT22;4117;53.622;9.958;2022-10-30T06:35:08;11.30;99.90
8152;DHT22;4117;53.622;9.958;2022-10-30T06:37:35;11.30;99.90
8152;DHT22;4117;53.622;9.958;2022-10-30T06:40:06;11.20;99.90
8152;DHT22;4117;53.622;9.958;2022-10-30T06:42:41;11.30;99.90
8152;DHT22;4117;53.622;9.958;2022-10-30T06:45:09;11.30;99.90
8152;DHT22;4117;53.622;9.958;2022-10-30T06:47:35;11.20;99.90
8152;DHT22;4117;53.622;9.958;2022-10-30T06:50:03;11.20;99.90
8152;DHT22;4117;53.622;9.958;2022-10-30T06:52:30;11.20;99.90
8152;DHT22;4117;53.622;9.958;2022-10-30T06:54:57;11.30;99.90
8152;DHT22;4117;53.622;9.958;2022-10-30T06:57:25;11.30;99.90
8152;DHT22;4117;53.622;9.958;2022-10-30T06:59:51;11.30;99.90
8152;DHT22;4117;53.622;9.958;2022-10-30T07:02:18;11.30;99.90
8152;DHT22;4117;53.622;9.958;2022-10-30T07:04:45;11.30;99.90
8152;DHT22;4117;53.622;9.958;2022-10-30T07:07:12;11.30;99.90
8152;DHT22;4117;53.622;9.958;2022-10-30T07:09:39;11.40;99.90
8152;DHT22;4117;53.622;9.958;2022-10-30T07:12:06;11.40;99.90
8152;DHT22;4117;53.622;9.958;2022-10-30T07:14:34;11.40;99.90
8152;DHT22;4117;53.622;9.958;2022-10-30T07:17:01;11.40;99.90
8152;DHT22;4117;53.622;9.958;2022-10-30T07:19:28;11.40;99.90
8152;DHT22;4117;53.622;9.958;2022-10-30T07:21:55;11.50;99.90
8152;DHT22;4117;53.622;9.958;2022-10-30T07:24:22;11.50;99.90
8152;DHT22;4117;53.622;9.958;2022-10-30T07:26:48;11.50;99.90
8152;DHT22;4117;53.622;9.958;2022-10-30T07:29:15;11.50;99.90
8152;DHT22;4117;53.622;9.958;2022-10-30T07:31:44;11.60;99.90
8152;DHT22;4117;53.622;9.958;2022-10-30T07:34:11;11.50;99.90
8152;DHT22;4117;53.622;9.958;2022-10-30T07:36:38;11.60;99.90
8152;DHT22;4117;53.622;9.958;2022-10-30T07:39:05;11.60;99.90
8152;DHT22;4117;53.622;9.958;2022-10-30T07:41:32;11.60;99.90
8152;DHT22;4117;53.622;9.958;2022-10-30T07:43:58;11.60;99.90
8152;DHT22;4117;53.622;9.958;2022-10-30T07:46:25;11.70;99.90
8152;DHT22;4117;53.622;9.958;2022-10-30T07:48:53;11.70;99.90
8152;DHT22;4117;53.622;9.958;2022-10-30T07:51:21;11.70;99.90
8152;DHT22;4117;53.622;9.958;2022-10-30T07:53:48;11.80;99.90
8152;DHT22;4117;53.622;9.958;2022-10-30T07:56:14;11.80;99.90
8152;DHT22;4117;53.622;9.958;2022-10-30T07:58:42;11.90;99.90
8152;DHT22;4117;53.622;9.958;2022-10-30T08:01:09;12.00;99.90
8152;DHT22;4117;53.622;9.958;2022-10-30T08:03:35;12.00;99.90
8152;DHT22;4117;53.622;9.958;2022-10-30T08:06:04;12.10;99.90
8152;DHT22;4117;53.622;9.958;2022-10-30T08:08:31;12.20;99.90
8152;DHT22;4117;53.622;9.958;2022-10-30T08:10:58;12.30;99.90
8152;DHT22;4117;53.622;9.958;2022-10-30T08:13:24;12.40;99.90
8152;DHT22;4117;53.622;9.958;2022-10-30T08:15:51;12.60;99.90
8152;DHT22;4117;53.622;9.958;2022-10-30T08:18:18;12.60;99.90
8152;DHT22;4117;53.622;9.958;2022-10-30T08:20:47;12.70;99.90
8152;DHT22;4117;53.622;9.958;2022-10-30T08:23:16;12.80;99.90
8152;DHT22;4117;53.622;9.958;2022-10-30T08:25:44;12.80;99.90
8152;DHT22;4117;53.622;9.958;2022-10-30T08:28:12;12.90;99.90
8152;DHT22;4117;53.622;9.958;2022-10-30T08:30:39;12.90;99.90
8152;DHT22;4117;53.622;9.958;2022-10-30T08:33:09;12.90;99.90
8152;DHT22;4117;53.622;9.958;2022-10-30T08:35:37;13.00;99.90
8152;DHT22;4117;53.622;9.958;2022-10-30T08:38:05;13.10;99.90
8152;DHT22;4117;53.622;9.958;2022-10-30T08:40:33;13.10;99.90
8152;DHT22;4117;53.622;9.958;2022-10-30T08:43:00;13.20;99.90
8152;DHT22;4117;53.622;9.958;2022-10-30T08:45:26;13.20;99.90
8152;DHT22;4117;53.622;9.958;2022-10-30T08:47:57;13.30;99.90
8152;DHT22;4117;53.622;9.958;2022-10-30T08:50:24;13.30;99.90
8152;DHT22;4117;53.622;9.958;2022-10-30T08:52:50;13.30;99.90
8152;DHT22;4117;53.622;9.958;2022-10-30T08:55:17;13.30;99.90
8152;DHT22;4117;53.622;9.958;2022-10-30T08:57:46;13.40;99.90
8152;DHT22;4117;53.622;9.958;2022-10-30T09:00:13;13.50;99.90
8152;DHT22;4117;53.622;9.958;2022-10-30T09:02:40;13.60;99.90
8152;DHT22;4117;53.622;9.958;2022-10-30T09:05:07;13.60;99.90
8152;DHT22;4117;53.622;9.958;2022-10-30T09:07:34;13.70;99.90
8152;DHT22;4117;53.622;9.958;2022-10-30T09:10:02;13.80;99.90
8152;DHT22;4117;53.622;9.958;2022-10-30T09:12:29;13.90;99.90
8152;DHT22;4117;53.622;9.958;2022-10-30T09:14:57;13.90;99.90
8152;DHT22;4117;53.622;9.958;2022-10-30T09:17:24;14.00;99.90
8152;DHT22;4117;53.622;9.958;2022-10-30T09:19:50;14.10;99.90
8152;DHT22;4117;53.622;9.958;2022-10-30T09:22:18;14.10;99.90
8152;DHT22;4117;53.622;9.958;2022-10-30T09:24:44;14.20;99.90
8152;DHT22;4117;53.622;9.958;2022-10-30T09:27:11;14.30;99.90
8152;DHT22;4117;53.622;9.958;2022-10-30T09:29:38;14.40;99.90
8152;DHT22;4117;53.622;9.958;2022-10-30T09:32:06;14.50;99.90
8152;DHT22;4117;53.622;9.958;2022-10-30T09:34:35;14.50;99.90
8152;DHT22;4117;53.622;9.958;2022-10-30T09:37:02;14.60;99.90
8152;DHT22;4117;53.622;9.958;2022-10-30T09:39:29;14.70;99.90
8152;DHT22;4117;53.622;9.958;2022-10-30T09:42:09;14.80;99.90
8152;DHT22;4117;53.622;9.958;2022-10-30T09:44:47;14.80;99.90
8152;DHT22;4117;53.622;9.958;2022-10-30T09:47:26;14.90;99.90
8152;DHT22;4117;53.622;9.958;2022-10-30T09:50:06;14.90;99.90
8152;DHT22;4117;53.622;9.958;2022-10-30T09:52:43;15.00;99.90
8152;DHT22;4117;53.622;9.958;2022-10-30T09:55:22;15.10;99.90
8152;DHT22;4117;53.622;9.958;2022-10-30T09:57:59;15.10;99.90
8152;DHT22;4117;53.622;9.958;2022-10-30T10:00:34;15.20;99.90
8152;DHT22;4117;53.622;9.958;2022-10-30T10:03:21;15.20;99.90
8152;DHT22;4117;53.622;9.958;2022-10-30T10:05:53;15.30;99.90
8152;DHT22;4117;53.622;9.958;2022-10-30T10:08:22;15.30;99.90
8152;DHT22;4117;53.622;9.958;2022-10-30T10:10:52;15.40;99.90
8152;DHT22;4117;53.622;9.958;2022-10-30T10:13:28;15.40;99.90
8152;DHT22;4117;53.622;9.958;2022-10-30T10:16:01;15.50;99.90
8152;DHT22;4117;53.622;9.958;2022-10-30T10:18:34;15.60;99.90
8152;DHT22;4117;53.622;9.958;2022-10-30T10:21:08;15.60;99.90
8152;DHT22;4117;53.622;9.958;2022-10-30T10:23:43;15.70;99.90
8152;DHT22;4117;53.622;9.958;2022-10-30T10:26:24;15.70;99.90
8152;DHT22;4117;53.622;9.958;2022-10-30T10:29:01;15.80;99.90
8152;DHT22;4117;53.622;9.958;2022-10-30T10:31:38;15.80;99.90
8152;DHT22;4117;53.622;9.958;2022-10-30T10:34:23;15.90;99.90
8152;DHT22;4117;53.622;9.958;2022-10-30T10:36:57;16.00;99.90
8152;DHT22;4117;53.622;9.958;2022-10-30T10:39:43;16.00;99.90
8152;DHT22;4117;53.622;9.958;2022-10-30T10:42:19;16.20;99.90
8152;DHT22;4117;53.622;9.958;2022-10-30T10:44:54;16.20;99.90
8152;DHT22;4117;53.622;9.958;2022-10-30T10:47:42;16.20;99.20
8152;DHT22;4117;53.622;9.958;2022-10-30T10:50:18;16.30;99.30
8152;DHT22;4117;53.622;9.958;2022-10-30T10:52:51;16.40;98.70
8152;DHT22;4117;53.622;9.958;2022-10-30T10:55:21;16.40;99.50
8152;DHT22;4117;53.622;9.958;2022-10-30T10:57:51;16.50;99.60
8152;DHT22;4117;53.622;9.958;2022-10-30T11:00:19;16.50;98.30
8152;DHT22;4117;53.622;9.958;2022-10-30T11:02:53;16.60;97.80
8152;DHT22;4117;53.622;9.958;2022-10-30T11:05:29;16.60;97.40
8152;DHT22;4117;53.622;9.958;2022-10-30T11:08:00;16.70;93.10
8152;DHT22;4117;53.622;9.958;2022-10-30T11:10:27;16.80;90.40
8152;DHT22;4117;53.622;9.958;2022-10-30T11:12:54;16.90;76.70
8152;DHT22;4117;53.622;9.958;2022-10-30T11:15:32;17.10;73.60
8152;DHT22;4117;53.622;9.958;2022-10-30T11:18:02;17.20;69.40
8152;DHT22;4117;53.622;9.958;2022-10-30T11:20:36;17.30;63.20
8152;DHT22;4117;53.622;9.958;2022-10-30T11:23:33;17.40;56.60
8152;DHT22;4117;53.622;9.958;2022-10-30T11:26:04;17.50;56.70
8152;DHT22;4117;53.622;9.958;2022-10-30T11:28:52;17.60;56.90
8152;DHT22;4117;53.622;9.958;2022-10-30T11:31:22;17.70;58.60
8152;DHT22;4117;53.622;9.958;2022-10-30T11:33:50;17.80;63.10
8152;DHT22;4117;53.622;9.958;2022-10-30T11:36:21;17.80;56.90
8152;DHT22;4117;53.622;9.958;2022-10-30T11:38:49;17.90;48.70
8152;DHT22;4117;53.622;9.958;2022-10-30T11:41:16;18.00;47.00
8152;DHT22;4117;53.622;9.958;2022-10-30T11:43:44;18.00;44.70
8152;DHT22;4117;53.622;9.958;2022-10-30T11:46:20;18.10;45.50
8152;DHT22;4117;53.622;9.958;2022-10-30T11:48:47;18.30;44.90
8152;DHT22;4117;53.622;9.958;2022-10-30T11:51:30;18.30;40.50
8152;DHT22;4117;53.622;9.958;2022-10-30T11:53:58;18.40;38.70
8152;DHT22;4117;53.622;9.958;2022-10-30T11:56:26;18.50;38.60
8152;DHT22;4117;53.622;9.958;2022-10-30T11:58:54;18.60;37.30
8152;DHT22;4117;53.622;9.958;2022-10-30T12:01:24;18.70;32.50
8152;DHT22;4117;53.622;9.958;2022-10-30T12:03:52;18.70;32.30
8152;DHT22;4117;53.622;9.958;2022-10-30T12:06:26;18.70;24.10
8152;DHT22;4117;53.622;9.958;2022-10-30T12:09:02;18.70;24.40
8152;DHT22;4117;53.622;9.958;2022-10-30T12:11:31;18.70;21.70
8152;DHT22;4117;53.622;9.958;2022-10-30T12:13:58;18.60;21.60
8152;DHT22;4117;53.622;9.958;2022-10-30T12:16:26;18.70;21.70
8152;DHT22;4117;53.622;9.958;2022-10-30T12:18:58;18.70;25.70
8152;DHT22;4117;53.622;9.958;2022-10-30T12:21:26;18.60;22.40
8152;DHT22;4117;53.622;9.958;2022-10-30T12:23:56;18.60;22.10
8152;DHT22;4117;53.622;9.958;2022-10-30T12:26:25;18.70;21.60
8152;DHT22;4117;53.622;9.958;2022-10-30T12:28:56;18.70;22.50
8152;DHT22;4117;53.622;9.958;2022-10-30T12:31:31;18.70;26.30
8152;DHT22;4117;53.622;9.958;2022-10-30T12:34:09;18.70;24.70
8152;DHT22;4117;53.622;9.958;2022-10-30T12:36:43;18.70;23.60
8152;DHT22;4117;53.622;9.958;2022-10-30T12:39:12;18.60;21.60
8152;DHT22;4117;53.622;9.958;2022-10-30T12:41:47;18.60;22.00
8152;DHT22;4117;53.622;9.958;2022-10-30T12:44:20;18.60;21.70
8152;DHT22;4117;53.622;9.958;2022-10-30T12:46:50;18.60;21.70
8152;DHT22;4117;53.622;9.958;2022-10-30T12:49:21;18.60;22.20
8152;DHT22;4117;53.622;9.958;2022-10-30T12:51:55;18.60;25.40
8152;DHT22;4117;53.622;9.958;2022-10-30T12:54:30;18.50;26.70
8152;DHT22;4117;53.622;9.958;2022-10-30T12:57:06;18.50;27.50
8152;DHT22;4117;53.622;9.958;2022-10-30T12:59:39;18.50;25.70
8152;DHT22;4117;53.622;9.958;2022-10-30T13:02:18;18.50;26.10
8152;DHT22;4117;53.622;9.958;2022-10-30T13:04:50;18.50;23.70
8152;DHT22;4117;53.622;9.958;2022-10-30T13:07:25;18.50;23.60
8152;DHT22;4117;53.622;9.958;2022-10-30T13:10:01;18.50;24.00
8152;DHT22;4117;53.622;9.958;2022-10-30T13:12:33;18.50;23.60
8152;DHT22;4117;53.622;9.958;2022-10-30T13:15:04;18.50;23.50
8152;DHT22;4117;53.622;9.958;2022-10-30T13:17:34;18.50;22.80
8152;DHT22;4117;53.622;9.958;2022-10-30T13:20:04;18.50;21.90
8152;DHT22;4117;53.622;9.958;2022-10-30T13:22:38;18.50;21.60
8152;DHT22;4117;53.622;9.958;2022-10-30T13:25:13;18.50;23.50
8152;DHT22;4117;53.622;9.958;2022-10-30T13:27:47;18.50;23.30
8152;DHT22;4117;53.622;9.958;2022-10-30T13:30:18;18.50;23.10
8152;DHT22;4117;53.622;9.958;2022-10-30T13:32:59;18.50;21.60
8152;DHT22;4117;53.622;9.958;2022-10-30T13:35:32;18.60;21.70
8152;DHT22;4117;53.622;9.958;2022-10-30T13:38:21;18.60;23.40
8152;DHT22;4117;53.622;9.958;2022-10-30T13:40:55;18.60;22.70
8152;DHT22;4117;53.622;9.958;2022-10-30T13:43:29;18.50;24.60
8152;DHT22;4117;53.622;9.958;2022-10-30T13:46:17;18.50;23.80
8152;DHT22;4117;53.622;9.958;2022-10-30T13:48:57;18.50;25.40
8152;DHT22;4117;53.622;9.958;2022-10-30T13:51:39;18.50;25.30
8152;DHT22;4117;53.622;9.958;2022-10-30T13:54:14;18.50;26.70
8152;DHT22;4117;53.622;9.958;2022-10-30T13:56:44;18.40;28.20
8152;DHT22;4117;53.622;9.958;2022-10-30T13:59:24;18.40;27.40
8152;DHT22;4117;53.622;9.958;2022-10-30T14:01:57;18.40;31.20
8152;DHT22;4117;53.622;9.958;2022-10-30T14:04:32;18.40;32.10
8152;DHT22;4117;53.622;9.958;2022-10-30T14:07:15;18.40;32.20
8152;DHT22;4117;53.622;9.958;2022-10-30T14:09:53;18.40;32.20
8152;DHT22;4117;53.622;9.958;2022-10-30T14:12:43;18.40;32.30
8152;DHT22;4117;53.622;9.958;2022-10-30T14:15:23;18.30;32.60
8152;DHT22;4117;53.622;9.958;2022-10-30T14:18:25;18.30;33.60
8152;DHT22;4117;53.622;9.958;2022-10-30T14:20:52;18.30;36.00
8152;DHT22;4117;53.622;9.958;2022-10-30T14:23:22;18.30;36.30
8152;DHT22;4117;53.622;9.958;2022-10-30T14:26:11;18.30;38.50
8152;DHT22;4117;53.622;9.958;2022-10-30T14:28:41;18.20;37.90
8152;DHT22;4117;53.622;9.958;2022-10-30T14:31:12;18.20;38.30
8152;DHT22;4117;53.622;9.958;2022-10-30T14:33:47;18.20;39.40
8152;DHT22;4117;53.622;9.958;2022-10-30T14:36:19;18.10;39.40
8152;DHT22;4117;53.622;9.958;2022-10-30T14:38:57;18.10;35.30
8152;DHT22;4117;53.622;9.958;2022-10-30T14:41:52;18.10;38.10
8152;DHT22;4117;53.622;9.958;2022-10-30T14:44:48;18.10;38.70
8152;DHT22;4117;53.622;9.958;2022-10-30T14:47:36;18.00;38.30
8152;DHT22;4117;53.622;9.958;2022-10-30T14:50:15;18.00;39.00
8152;DHT22;4117;53.622;9.958;2022-10-30T14:52:55;17.90;39.80
8152;DHT22;4117;53.622;9.958;2022-10-30T14:55:30;17.90;38.90
8152;DHT22;4117;53.622;9.958;2022-10-30T14:58:20;17.90;38.40
8152;DHT22;4117;53.622;9.958;2022-10-30T15:00:49;17.90;38.90
8152;DHT22;4117;53.622;9.958;2022-10-30T15:03:34;17.80;39.00
8152;DHT22;4117;53.622;9.958;2022-10-30T15:06:16;17.70;38.20
8152;DHT22;4117;53.622;9.958;2022-10-30T15:09:07;17.60;38.40
8152;DHT22;4117;53.622;9.958;2022-10-30T15:14:35;17.50;38.20
8152;DHT22;4117;53.622;9.958;2022-10-30T15:17:04;17.40;36.10
8152;DHT22;4117;53.622;9.958;2022-10-30T15:19:33;17.30;36.10
8152;DHT22;4117;53.622;9.958;2022-10-30T15:22:00;17.30;38.30
8152;DHT22;4117;53.622;9.958;2022-10-30T15:24:28;17.20;37.30
8152;DHT22;4117;53.622;9.958;2022-10-30T15:26:58;17.10;36.90
8152;DHT22;4117;53.622;9.958;2022-10-30T15:29:27;17.10;37.20
8152;DHT22;4117;53.622;9.958;2022-10-30T15:31:57;17.00;37.90
8152;DHT22;4117;53.622;9.958;2022-10-30T15:34:25;17.00;37.50
8152;DHT22;4117;53.622;9.958;2022-10-30T15:36:54;16.90;36.00
8152;DHT22;4117;53.622;9.958;2022-10-30T15:39:21;16.90;36.30
8152;DHT22;4117;53.622;9.958;2022-10-30T15:41:50;16.70;36.10
8152;DHT22;4117;53.622;9.958;2022-10-30T15:44:21;16.70;37.90
8152;DHT22;4117;53.622;9.958;2022-10-30T15:46:50;16.60;36.50
8152;DHT22;4117;53.622;9.958;2022-10-30T15:49:23;16.50;36.10
8152;DHT22;4117;53.622;9.958;2022-10-30T15:51:55;16.40;36.10
8152;DHT22;4117;53.622;9.958;2022-10-30T15:54:22;16.40;36.20
8152;DHT22;4117;53.622;9.958;2022-10-30T15:56:52;16.30;36.60
8152;DHT22;4117;53.622;9.958;2022-10-30T15:59:22;16.30;36.90
8152;DHT22;4117;53.622;9.958;2022-10-30T16:01:52;16.20;36.20
8152;DHT22;4117;53.622;9.958;2022-10-30T16:04:21;16.20;36.80
8152;DHT22;4117;53.622;9.958;2022-10-30T16:06:49;16.20;37.00
8152;DHT22;4117;53.622;9.958;2022-10-30T16:09:18;16.10;36.90
8152;DHT22;4117;53.622;9.958;2022-10-30T16:11:46;16.00;36.50
8152;DHT22;4117;53.622;9.958;2022-10-30T16:14:17;16.00;37.70
8152;DHT22;4117;53.622;9.958;2022-10-30T16:16:46;15.90;38.30
8152;DHT22;4117;53.622;9.958;2022-10-30T16:19:19;15.90;36.70
8152;DHT22;4117;53.622;9.958;2022-10-30T16:21:50;15.80;35.20
8152;DHT22;4117;53.622;9.958;2022-10-30T16:24:19;15.80;38.50
8152;DHT22;4117;53.622;9.958;2022-10-30T16:27:01;15.80;38.80